Latest Coastal Weather Observations for Bunbury

IDW60701

Issued at 6:13 am WST Saturday 3 December 2016 (issued every 10 minutes, with the page automatically refreshed every 10 minutes)

About coastal observations | Map of coastal stations | Coastal observations for WA | Marine services | Other Formats
Station Details ID: 009965 Name: BUNBURY Lat: -33.36 Lon: 115.64 Height: 5.2 m
Data from the previous 72 hours. | See also: Recent months at Bunbury
Date/Time
WST
Temp
°C
Wind Pressure Rain since
9am
mm
Weather Cloud Vis
km
Sea
Height
m
Swell
Dir  Spd
kts
Gust
kts
hPa Trend Height
m
Period
s
Dir
03/06:00am 10.2 ESE 3 3 1008.0 - 0.0 - - - - - - -
03/05:30am 9.0 CALM 0 0 1008.1 - 0.0 - - - - - - -
03/05:00am 9.2 SSW 1 2 1008.0 - 0.0 - - - - - - -
03/04:30am 10.1 SSW 2 3 1007.7 - 0.0 - - - - - - -
03/04:00am 10.7 S 3 4 1007.5 - 0.0 - - - - - - -
03/03:30am 10.7 S 2 3 1007.5 - 0.0 - - - - - - -
03/03:00am 10.9 SSW 4 5 1007.6 - 0.0 - - - - - - -
03/02:30am 11.5 SSW 4 6 1007.8 - 0.0 - - - - - - -
03/02:00am 12.0 S 5 6 1007.8 - 0.0 - - - - - - -
03/01:30am 12.7 SSW 4 6 1008.0 - 0.0 - - - - - - -
03/01:00am 13.0 SSW 5 8 1008.5 - 0.0 - - - - - - -
03/12:30am 12.7 SW 4 6 1008.5 - 0.0 - - - - - - -
03/12:00am 13.2 SSW 4 5 1008.7 - 0.0 - - - - - - -
 
Date/Time
WST
Temp
°C
Wind Pressure Rain since
9am
mm
Weather Cloud Vis
km
Sea
Height
m
Swell
Dir  Spd
kts
Gust
kts
hPa Trend Height
m
Period
s
Dir
02/11:30pm 13.5 SSW 4 6 1009.0 - 0.0 - - - - - - -
02/11:00pm 14.3 SSW 5 6 1009.5 - 0.0 - - - - - - -
02/10:30pm 14.8 S 5 7 1009.3 - 0.0 - - - - - - -
02/10:00pm 15.5 S 6 10 1009.5 - 0.0 - - - - - - -
02/09:30pm 15.9 SSW 6 9 1009.6 - 0.0 - - - - - - -
02/09:00pm 16.4 S 6 9 1009.4 - 0.0 - - - - - - -
02/08:30pm 17.2 S 7 9 1009.4 - 0.0 - - - - - - -
02/08:00pm 17.9 S 7 9 1009.3 - 0.0 - - - - - - -
02/07:30pm 19.0 S 7 12 1009.4 - 0.0 - - - - - - -
02/07:00pm 20.1 SSW 7 12 1009.3 - 0.0 - - - - - - -
02/06:30pm 21.6 SSW 10 15 1009.1 - 0.0 - - - - - - -
02/06:00pm 22.2 SW 9 15 1008.9 - 0.0 - - - - - - -
02/05:30pm 22.1 SW 12 19 1008.9 - 0.0 - - - - - - -
02/05:00pm 21.8 WSW 12 19 1008.9 - 0.0 - - - - - - -
02/04:30pm 22.3 SW 11 19 1009.2 - 0.0 - - - - - - -
02/04:00pm 22.2 SW 11 17 1009.6 - 0.0 - - - - - - -
02/03:30pm 22.2 WSW 11 17 1009.8 - 0.0 - - - - - - -
02/03:00pm 21.9 WSW 12 17 1010.0 - 0.0 - - - - - - -
02/02:30pm 22.3 WSW 10 16 1010.4 - 0.0 - - - - - - -
02/02:00pm 23.4 WSW 9 14 1010.7 - 0.0 - - - - - - -
02/01:30pm 23.1 WSW 9 13 1010.9 - 0.0 - - - - - - -
02/01:00pm 22.4 WSW 10 14 1011.3 - 0.0 - - - - - - -
02/12:30pm 22.3 WSW 10 14 1011.4 - 0.0 - - - - - - -
02/12:00pm 23.2 W 8 12 1011.9 - 0.0 - - - - - - -
02/11:30am 22.3 W 8 12 1012.2 - 0.0 - - - - - - -
02/11:00am 22.4 ESE 4 12 1012.3 - 0.0 - - - - - - -
02/10:30am 22.5 ENE 3 7 1012.7 - 0.0 - - - - - - -
02/10:00am 21.5 E 5 9 1013.3 - 0.0 - - - - - - -
02/09:30am 20.3 ENE 7 10 1013.7 - 0.0 - - - - - - -
02/09:00am 19.6 E 7 11 1014.1 - 0.0 - - - - - - -
02/08:30am 18.4 E 8 12 1014.6 - 0.0 - - - - - - -
02/08:00am 17.5 ENE 9 14 1014.6 - 0.0 - - - - - - -
02/07:30am 16.3 ENE 11 16 1015.0 - 0.0 - - - - - - -
02/07:00am 15.2 ESE 7 11 1015.5 - 0.0 - - - - - - -
02/06:30am 13.7 ESE 6 9 1015.6 - 0.0 - - - - - - -
02/06:00am 12.2 SE 6 8 1015.6 - 0.0 - - - - - - -
02/05:30am 11.0 SE 6 9 1015.4 - 0.0 - - - - - - -
02/05:00am 10.6 SSE 5 7 1015.2 - 0.0 - - - - - - -
02/04:30am 10.8 SE 5 9 1014.9 - 0.0 - - - - - - -
02/04:00am 10.7 SE 5 8 1014.7 - 0.0 - - - - - - -
02/03:30am 10.9 SSE 5 8 1014.6 - 0.0 - - - - - - -
02/03:00am 11.4 SSE 5 8 1014.6 - 0.0 - - - - - - -
02/02:30am 11.5 SSE 5 7 1014.7 - 0.0 - - - - - - -
02/02:00am 12.1 SSE 5 8 1014.9 - 0.0 - - - - - - -
02/01:30am 12.2 SSE 5 7 1015.0 - 0.0 - - - - - - -
02/01:00am 12.6 SSE 5 7 1015.2 - 0.0 - - - - - - -
02/12:30am 12.7 SSE 6 8 1015.2 - 0.0 - - - - - - -
02/12:00am 13.0 SSE 6 9 1015.5 - 0.0 - - - - - - -
 
Date/Time
WST
Temp
°C
Wind Pressure Rain since
9am
mm
Weather Cloud Vis
km
Sea
Height
m
Swell
Dir  Spd
kts
Gust
kts
hPa Trend Height
m
Period
s
Dir
01/11:30pm 13.2 SSE 7 10 1015.6 - 0.0 - - - - - - -
01/11:00pm 13.3 SSE 7 10 1016.0 - 0.0 - - - - - - -
01/10:30pm 13.7 SSE 8 11 1016.2 - 0.0 - - - - - - -
01/10:00pm 14.0 SSE 8 11 1016.0 - 0.0 - - - - - - -
01/09:30pm 14.3 S 9 13 1015.9 - 0.0 - - - - - - -
01/09:00pm 14.9 S 10 17 1015.7 - 0.0 - - - - - - -
01/08:30pm 15.3 S 10 16 1015.5 - 0.0 - - - - - - -
01/08:00pm 16.0 S 11 18 1015.3 - 0.0 - - - - - - -
01/07:30pm 16.7 S 12 19 1015.1 - 0.0 - - - - - - -
01/07:00pm 17.9 S 12 19 1014.8 - 0.0 - - - - - - -
01/06:30pm 19.4 S 12 17 1014.3 - 0.0 - - - - - - -
01/06:00pm 20.8 S 14 19 1013.9 - 0.0 - - - - - - -
01/05:30pm 22.1 SSW 12 18 1013.5 - 0.0 - - - - - - -
01/05:00pm 23.1 SW 8 14 1013.3 - 0.0 - - - - - - -
01/04:30pm 22.0 WSW 11 17 1013.6 - 0.0 - - - - - - -
01/04:00pm 22.3 WSW 11 18 1013.8 - 0.0 - - - - - - -
01/03:30pm 21.6 W 13 17 1014.1 - 0.0 - - - - - - -
01/03:00pm 21.8 W 13 21 1014.3 - 0.0 - - - - - - -
01/02:30pm 22.4 W 11 17 1014.4 - 0.0 - - - - - - -
01/02:00pm 21.6 W 12 17 1014.8 - 0.0 - - - - - - -
01/01:30pm 21.3 W 13 19 1015.2 - 0.0 - - - - - - -
01/01:00pm 20.9 W 13 18 1015.3 - 0.0 - - - - - - -
01/12:30pm 21.1 W 11 16 1015.8 - 0.0 - - - - - - -
01/12:00pm 21.2 W 12 16 1016.0 - 0.0 - - - - - - -
01/11:30am 21.2 W 10 15 1016.2 - 0.0 - - - - - - -
01/11:00am 21.2 SW 5 11 1016.6 - 0.0 - - - - - - -
01/10:30am - S 7 13 1016.7 - 0.0 - - - - - - -
01/10:00am - SE 6 12 1017.0 - 0.0 - - - - - - -
01/09:30am - SSE 7 12 1017.1 - 0.0 - - - - - - -
01/09:00am - S 5 11 1017.2 - 0.0 - - - - - - -
01/08:30am - SE 6 11 1017.4 - 0.0 - - - - - - -
01/08:00am - SSE 6 9 1017.4 - 0.0 - - - - - - -
01/07:30am - SE 8 12 1017.3 - 0.0 - - - - - - -
01/07:00am - SE 7 10 1016.9 - 0.0 - - - - - - -
01/06:30am - SSE 6 10 1016.7 - 0.0 - - - - - - -
01/06:00am - S 5 8 1016.3 - 0.0 - - - - - - -
01/05:30am - SSE 4 8 1015.9 - 0.0 - - - - - - -
01/05:00am - S 5 8 1015.7 - 0.0 - - - - - - -
01/04:30am 13.8 S 4 5 1015.3 - 0.0 - - - - - - -
01/04:00am 13.9 S 3 5 1015.0 - 0.0 - - - - - - -
01/03:30am 14.6 S 4 6 1015.0 - 0.0 - - - - - - -
01/03:00am 15.2 S 7 9 1014.8 - 0.0 - - - - - - -
01/02:30am 15.3 S 6 8 1014.8 - 0.0 - - - - - - -
01/02:00am 14.7 CALM 0 2 1015.0 - 0.0 - - - - - - -
01/01:30am 14.6 SSW 2 2 1015.2 - 0.0 - - - - - - -
01/01:00am 13.9 SSE 2 3 1015.3 - 0.0 - - - - - - -
01/12:30am 15.3 S 1 2 1015.4 - 0.0 - - - - - - -
01/12:00am 16.1 S 2 3 1015.4 - 0.0 - - - - - - -
 
Date/Time
WST
Temp
°C
Wind Pressure Rain since
9am
mm
Weather Cloud Vis
km
Sea
Height
m
Swell
Dir  Spd
kts
Gust
kts
hPa Trend Height
m
Period
s
Dir
30/11:30pm 16.4 S 3 4 1015.7 - 0.0 - - - - - - -
30/11:00pm 16.2 S 3 5 1015.8 - 0.0 - - - - - - -
30/10:30pm 16.0 S 3 4 1015.8 - 0.0 - - - - - - -
30/10:00pm 15.8 S 4 5 1015.8 - 0.0 - - - - - - -
30/09:30pm 16.5 SSW 5 7 1015.8 - 0.0 - - - - - - -
30/09:00pm 16.7 SSW 4 6 1015.7 - 0.0 - - - - - - -
30/08:30pm 17.7 SSW 7 11 1015.6 - 0.0 - - - - - - -
30/08:00pm 18.3 S 8 14 1015.5 - 0.0 - - - - - - -
30/07:30pm 18.3 SSW 9 15 1015.1 - 0.0 - - - - - - -
30/07:00pm 19.0 SSW 8 13 1014.7 - 0.0 - - - - - - -
30/06:30pm 19.9 SW 12 18 1014.2 - 0.0 - - - - - - -
30/06:00pm 20.2 SW 13 19 1013.6 - 0.0 - - - - - - -
30/05:30pm 20.6 WSW 12 20 1013.3 - 0.0 - - - - - - -
30/05:00pm 21.3 WSW 12 19 1012.9 - 0.0 - - - - - - -
30/04:30pm 21.3 WSW 15 22 1012.9 - 0.0 - - - - - - -
30/04:00pm 21.7 WSW 14 22 1013.0 - 0.0 - - - - - - -
30/03:30pm 21.7 WSW 12 19 1013.1 - 0.0 - - - - - - -
30/03:00pm 22.0 W 13 19 1013.3 - 0.0 - - - - - - -
30/02:30pm 21.8 W 13 18 1013.5 - 0.0 - - - - - - -
30/02:00pm 21.7 W 13 18 1013.7 - 0.0 - - - - - - -
30/01:30pm 21.7 WSW 11 16 1014.1 - 0.0 - - - - - - -
30/01:00pm 21.5 W 9 13 1014.3 - 0.0 - - - - - - -
30/12:30pm 20.2 W 8 12 1014.5 - 0.0 - - - - - - -
30/12:00pm 20.5 WSW 9 14 1014.7 - 0.0 - - - - - - -
30/11:30am 20.2 WSW 8 11 1014.7 - 0.0 - - - - - - -
30/11:00am 20.0 WSW 8 11 1015.1 - 0.0 - - - - - - -
30/10:30am 20.4 W 7 10 1015.3 - 0.0 - - - - - - -
30/10:00am 20.1 W 7 9 1015.5 - 0.0 - - - - - - -
30/09:30am 19.9 WNW 5 7 1015.5 - 0.0 - - - - - - -
30/09:00am 19.8 S 3 4 1015.8 - 0.0 - - - - - - -
30/08:30am 18.9 NE 2 4 1015.9 - 0.0 - - - - - - -
30/08:00am 17.6 NNE 5 8 1015.9 - 0.0 - - - - - - -
30/07:30am 16.9 NE 5 7 1015.9 - 0.0 - - - - - - -
30/07:00am 16.0 ENE 4 7 1016.0 - 0.0 - - - - - - -
30/06:30am 14.3 E 2 5 1016.1 - 0.0 - - - - - - -

Other Formats:

Comma delimited format used in spreadsheet applications
http://www.bom.gov.au/fwo/IDW60701/IDW60701.94604.axf

JavaScript Object Notation format (JSON) in row-major order
http://www.bom.gov.au/fwo/IDW60701/IDW60701.94604.json